Tiempo atmosférico en la estación meteorológica de Villena, Alacant/Alicante (486 m.)



Fecha
DESCASC
Temp. máxima en grados centígrados (hora)
DESCASC
Temp. mínima en grados centígrados (hora)
DESCASC
Temp. media en grados centígrados
DESCASC
Racha de viento máxima en m/sg (hora)
DESCASC
Velocidad máxima media en intervalos de 10 minutos(hora)
DESCASC
Precipitaciones diarias en mm
DESCASC
Precipitaciones de 00:00 a 06:00 en mm
DESCASC
Precipitaciones de 06:00 a 12:00 en mm
DESCASC
Precipitaciones de 12:00 a 18:00 en mm
DESCASC
Precipitaciones de 18:00 a 24:00 en mm
DESCASC
17-01-2021 18.6 (15:20) -3.2 (-00:0) 7.7 10.28 (16:30) 6.67 (16:50) -- -- -- -- --
25-01-2021 17.9 (13:30) 6.7 (00:00) 12.3 15 (23:20) 9.72 (23:20) 0 0 0 0 0
26-01-2021 17.7 (13:50) 10.3 (00:00) 14 11.11 (00:10) 7.22 (00:10) 0.6 0 0 0.6 0
21-01-2021 16.8 (15:20) 2.3 (00:00) 9.5 16.11 (15:40) 10.83 (15:40) -- -- -- -- --
18-01-2021 16.4 (15:30) -3.1 (-00:0) 6.6 6.67 (16:50) 5.28 (16:30) -- -- -- -- --
19-01-2021 16.2 (15:10) -2.9 (-00:0) 6.7 7.22 (16:00) 5.56 (16:50) -- -- -- -- --
24-01-2021 16 (15:20) 8.8 (00:00) 12.4 22.78 (07:20) 13.06 (06:50) -- -- -- -- --
22-01-2021 15.8 (10:10) 6.4 (00:00) 11.1 20 (11:10) 12.5 (11:20) -- -- -- -- --
23-01-2021 14.5 (16:30) 5.6 (00:00) 10 13.89 (01:00) 8.33 (00:10) -- -- -- -- --
16-01-2021 14.1 (16:10) -3.5 (-00:0) 5.3 10.56 (00:20) 7.22 (00:20) -- -- -- -- --
15-01-2021 13.9 (15:30) -2.2 (-00:0) 5.8 11.67 (17:10) 8.33 (17:10) -- -- -- -- --
14-01-2021 13.2 (14:00) -3.2 (07:30) 5 8.33 (16:40) 5 (16:40) -- -- -- -- --
28-12-2020 12.5 (14:40) -0.7 (-00:0) 5.9 16.67 (10:10) 9.72 (13:50) -- -- -- -- --
13-01-2021 12.1 (15:00) -4.3 (-00:0) 3.9 9.17 (14:30) 4.72 (18:00) -- -- -- -- --
31-12-2020 11.9 (15:00) -1.3 (-00:0) 5.3 9.44 (12:50) 5.56 (15:40) -- -- -- -- --
29-12-2020 10.7 (15:20) -2.5 (-00:0) 4.1 14.72 (15:50) 9.72 (13:30) -- -- -- -- --
06-01-2021 10.3 (14:10) -7.7 (-00:0) 1.3 4.72 (14:00) 3.06 (16:30) -- -- -- -- --
30-12-2020 10.1 (14:30) 0.3 (00:00) 5.2 11.94 (12:10) 8.33 (12:30) -- -- -- -- --
01-01-2021 9.5 (14:30) -2.3 (-00:0) 3.6 15.28 (15:20) 9.44 (15:40) -- -- -- -- --
05-01-2021 9.2 (16:10) -5.8 (-00:0) 1.7 6.11 (11:30) 3.61 (06:20) -- -- -- -- --
04-01-2021 9.1 (14:00) -7.3 (-00:0) 0.9 9.72 (14:20) 6.39 (16:10) -- -- -- -- --
11-01-2021 8.9 (14:10) -1.1 (-00:0) 3.9 6.39 (23:20) 3.89 (20:20) -- -- -- -- --
12-01-2021 8.8 (14:30) -4.4 (-00:0) 2.2 11.67 (16:40) 8.33 (17:10) -- -- -- -- --
03-01-2021 8.7 (14:30) -4.1 (-00:0) 2.3 14.17 (16:00) 8.61 (14:40) -- -- -- -- --
20-01-2021 7.6 (17:30) -2.3 (-00:0) 2.6 5.28 (18:40) 4.17 (19:00) -- -- -- -- --
02-01-2021 7 (15:30) -0.5 (-00:0) 3.3 14.17 (22:00) 8.61 (16:20) -- -- -- -- --
10-01-2021 6.9 (15:10) -0.8 (03:30) 3.1 7.22 (16:40) 4.44 (16:30) -- -- -- -- --
09-01-2021 5.3 (15:20) 0.8 (00:00) 3.1 12.22 (05:00) 8.89 (05:00) -- -- -- -- --
07-01-2021 4.6 (13:10) 1.7 (00:00) 3.1 8.61 (14:00) 6.11 (14:00) -- -- -- -- --
08-01-2021 4.2 (23:10) 0.4 (00:00) 2.3 10.28 (19:50) 6.11 (19:40) -- -- -- -- --

Gráficas

Temp. máximas Temp. mínimas Temp. medias Precipitaciones Rachas de viento máximas Velocidades máximas media en intervalos de 10 minutos

Datos horarios

Fecha y hora oficial Temperatura (ºC) Velocidad del viento (km/h) Dirección del viento Racha (km/h) Dirección de racha Precipitación (mm) Presión (hPa) Tendencia (hPa) Humedad (%)
2021-01-26 23:00:00 13.1 7 Noroeste 11 Noroeste 0 -- -- 79
2021-01-26 22:00:00 13.9 8 Noroeste 14 Noroeste 0 -- -- 79
2021-01-26 21:00:00 14.2 14 Noroeste 23 Oeste 0 -- -- 78
2021-01-26 20:00:00 13.7 4 Este 15 Oeste 0 -- -- 80
2021-01-26 19:00:00 14.8 11 Oeste 18 Noroeste 0 -- -- 76
2021-01-26 18:00:00 15.5 10 Noroeste 24 Noroeste 0 -- -- 71
2021-01-26 17:00:00 16 14 Noroeste 23 Noroeste 0 -- -- 70
2021-01-26 16:00:00 16.2 9 Oeste 21 Oeste 0 -- -- 72
2021-01-26 15:00:00 16.1 2 Sudeste 22 Oeste 0.6 -- -- 77
2021-01-26 14:00:00 17.6 15 Oeste 29 Oeste 0 -- -- 63
2021-01-26 13:00:00 16.5 17 Oeste 28 Oeste 0 -- -- 68
2021-01-26 12:00:00 16 18 Oeste 29 Oeste 0 -- -- 70
2021-01-26 11:00:00 15 14 Oeste 25 Oeste 0 -- -- 72
2021-01-26 10:00:00 14.2 11 Oeste 18 Oeste 0 -- -- 76
2021-01-26 09:00:00 13 8 Oeste 14 Oeste 0 -- -- 81
2021-01-26 08:00:00 13.3 6 Noroeste 22 Noroeste 0 -- -- 78
2021-01-26 07:00:00 13.6 12 Noroeste 21 Oeste 0 -- -- 77
2021-01-26 06:00:00 13.7 14 Noroeste 21 Noroeste 0 -- -- 76
2021-01-26 05:00:00 13.9 11 Noroeste 17 Oeste 0 -- -- 77
2021-01-26 04:00:00 14.1 13 Noroeste 24 Noroeste 0 -- -- 76
2021-01-26 03:00:00 14.3 14 Noroeste 35 Noroeste 0 -- -- 76
2021-01-26 02:00:00 14.4 17 Noroeste 39 Noroeste 0 -- -- 74
2021-01-26 01:00:00 14.3 19 Noroeste 40 Noroeste 0 -- -- 75
2021-01-26 00:00:00 14.2 28 Noroeste 54 Noroeste 0 -- -- 75
2021-01-25 23:00:00 14.5 26 Noroeste 45 Noroeste 0 -- -- 73
2021-01-25 22:00:00 15 23 Noroeste 43 Noroeste 0 -- -- 70
2021-01-25 21:00:00 15 14 Noroeste 40 Noroeste 0 -- -- 68
2021-01-25 20:00:00 15.2 17 Noroeste 37 Oeste 0 -- -- 67
2021-01-25 19:00:00 15.8 21 Noroeste 42 Oeste 0 -- -- 63
2021-01-25 18:00:00 16.5 27 Noroeste 49 Noroeste 0 -- -- 61
2021-01-25 17:00:00 16.9 22 Noroeste 36 Noroeste 0 -- -- 58
2021-01-25 16:00:00 16.6 15 Oeste 38 Oeste 0 -- -- 60
2021-01-25 15:00:00 16.9 17 Oeste 41 Oeste 0 -- -- 58
2021-01-25 14:00:00 17.2 28 Oeste 42 Oeste 0 -- -- 57
2021-01-25 13:00:00 15.7 28 Oeste 46 Oeste 0 -- -- 60
2021-01-25 12:00:00 15.7 19 Oeste 37 Oeste 0 -- -- 60
2021-01-25 11:00:00 14.6 16 Oeste 31 Oeste 0 -- -- 63
2021-01-25 10:00:00 9.7 4 Nordeste 11 Nordeste 0 -- -- 81
2021-01-25 09:00:00 7 4 Noroeste 9 Nordeste 0 -- -- 81
2021-01-25 08:00:00 8.1 3 Norte 10 Norte 0 -- -- 79
2021-01-25 07:00:00 9 5 Norte 17 Norte 0 -- -- 76
2021-01-25 06:00:00 9.8 14 Norte 19 Norte 0 -- -- 73
2021-01-25 05:00:00 9.9 12 Norte 29 Noroeste 0 -- -- 72
2021-01-25 04:00:00 9.6 16 Noroeste 27 Noroeste 0 -- -- 71
2021-01-25 03:00:00 9.7 12 Norte 23 Norte 0 -- -- 69
2021-01-25 02:00:00 10 9 Norte 24 Norte 0 -- -- 67
2021-01-25 01:00:00 10 16 Norte 28 Norte 0 -- -- 70
2021-01-25 00:00:00 10 17 Norte 33 Noroeste 0 -- -- 71
2021-01-24 23:00:00 10.1 17 Noroeste 30 Noroeste 0 -- -- 71
2021-01-24 22:00:00 9.2 9 Noroeste 16 Noroeste 0 -- -- 73
2021-01-24 21:00:00 9.2 6 Noroeste 12 Norte 0 -- -- 72
2021-01-24 20:00:00 9 4 Sur 9 Nordeste 0 -- -- 68
2021-01-24 19:00:00 10.5 3 Norte 7 Sudeste 0 -- -- 66
2021-01-24 18:00:00 12.8 5 Noroeste 23 Noroeste 0 -- -- 59
2021-01-24 17:00:00 15 15 Noroeste 31 Noroeste 0 -- -- 51
2021-01-24 16:00:00 15.6 18 Noroeste 45 Noroeste 0 -- -- 49
2021-01-24 15:00:00 15.7 29 Noroeste 46 Oeste 0 -- -- 48
2021-01-24 14:00:00 15.7 26 Noroeste 46 Oeste 0 -- -- 50
2021-01-24 13:00:00 14.9 33 Noroeste 53 Oeste 0 -- -- 52
2021-01-24 12:00:00 14.4 31 Noroeste 44 Noroeste 0 -- -- 54
2021-01-24 11:00:00 13.9 31 Noroeste 62 Noroeste 0 -- -- 58
2021-01-24 10:00:00 13.4 35 Noroeste 72 Noroeste 0 -- -- 60
2021-01-24 09:00:00 13.2 39 Noroeste 68 Oeste 0 -- -- 58
2021-01-24 08:00:00 13.6 35 Oeste 82 Oeste 0 -- -- 68
2021-01-24 07:00:00 14.3 44 Oeste 77 Oeste 0 -- -- 64
2021-01-24 06:00:00 14.4 32 Oeste 59 Noroeste 0 -- -- 65
2021-01-24 05:00:00 15.2 29 Oeste 52 Oeste 0 -- -- 59
2021-01-24 04:00:00 15.3 29 Oeste 59 Oeste 0 -- -- 60
2021-01-24 03:00:00 14.6 25 Oeste 43 Oeste 0 -- -- 62
2021-01-24 02:00:00 13.4 10 Oeste 36 Sudoeste 0 -- -- 65
2021-01-24 01:00:00 10.5 5 Sudeste 22 Sudeste 0 -- -- 72
2021-01-24 00:00:00 9 11 Sudeste 24 Sudeste 0 -- -- 67
2021-01-23 23:00:00 9 8 Sudeste 15 Sur 0 -- -- 70
2021-01-23 22:00:00 10.2 9 Sur 25 Sudoeste 0 -- -- 68
2021-01-23 21:00:00 12 18 Sudoeste 35 Sudoeste 0 -- -- 64
2021-01-23 20:00:00 11.7 9 Sudoeste 29 Sudoeste 0 -- -- 62
2021-01-23 19:00:00 12 10 Sudoeste 24 Oeste 0 -- -- 55
2021-01-23 18:00:00 13.1 4 Sur 15 Sudoeste 0 -- -- 51
2021-01-23 17:00:00 13.5 9 Noroeste 35 Oeste 0 -- -- 49
2021-01-23 16:00:00 14.3 21 Oeste 36 Sudoeste 0 -- -- 44
2021-01-23 15:00:00 14.1 21 Oeste 42 Noroeste 0 -- -- 46
2021-01-23 14:00:00 13.2 21 Noroeste 40 Noroeste 0 -- -- 52
2021-01-23 13:00:00 12.6 23 Oeste 35 Oeste 0 -- -- 51
2021-01-23 12:00:00 10.4 21 Oeste 32 Noroeste 0 -- -- 58
2021-01-23 11:00:00 10 22 Noroeste 40 Noroeste 0 -- -- 62
2021-01-23 10:00:00 8.7 23 Noroeste 40 Noroeste 0 -- -- 64
2021-01-23 09:00:00 7.2 14 Noroeste 46 Noroeste 0 -- -- 69
2021-01-23 08:00:00 7.6 26 Noroeste 47 Noroeste 0 -- -- 70
2021-01-23 07:00:00 7.5 21 Noroeste 38 Noroeste 0 -- -- 72
2021-01-23 06:00:00 6.6 18 Noroeste 35 Noroeste 0 -- -- 74
2021-01-23 05:00:00 7.2 15 Noroeste 35 Noroeste 0 -- -- 73
2021-01-23 04:00:00 5.6 7 Noroeste 24 Noroeste 0 -- -- 77
2021-01-23 03:00:00 7 13 Noroeste 40 Noroeste 0 -- -- 71
2021-01-23 02:00:00 7.3 19 Noroeste 45 Oeste 0 -- -- 70
2021-01-23 01:00:00 7.8 28 Noroeste 50 Oeste 0 -- -- 70
2021-01-23 00:00:00 7.8 31 Noroeste 50 Noroeste 0 -- -- 72
2021-01-22 23:00:00 7.9 31 Noroeste 47 Noroeste 0 -- -- 73
2021-01-22 22:00:00 8 24 Noroeste 41 Noroeste 0 -- -- 74
2021-01-22 21:00:00 7.6 13 Norte 22 Norte 0 -- -- 78
2021-01-22 20:00:00 6.9 10 Noroeste 39 Oeste 0 -- -- 80
2021-01-22 19:00:00 6.7 27 Oeste 41 Oeste 0.4 -- -- 90
2021-01-22 18:00:00 6.5 30 Oeste 54 Noroeste 2 -- -- 98
2021-01-22 17:00:00 10.5 18 Noroeste 41 Noroeste 0 -- -- 71
2021-01-22 16:00:00 10.8 29 Noroeste 54 Noroeste 0 -- -- 67
2021-01-22 15:00:00 13.8 39 Oeste 59 Oeste 0 -- -- 46
2021-01-22 14:00:00 14 30 Noroeste 58 Oeste 0 -- -- 45
2021-01-22 13:00:00 14.6 34 Oeste 64 Oeste 0 -- -- 48
2021-01-22 12:00:00 15.7 32 Noroeste 72 Noroeste 0 -- -- 42
2021-01-22 11:00:00 15.1 27 Noroeste 55 Oeste 0 -- -- 52
2021-01-22 10:00:00 15.6 34 Oeste 53 Oeste 0 -- -- 57
2021-01-22 09:00:00 11.4 12 Sur 32 Sur 0 -- -- 72
2021-01-22 08:00:00 10.6 19 Sur 33 Sur 0 -- -- 73
2021-01-22 07:00:00 10.8 22 Sur 27 Sur 0 -- -- 75
2021-01-22 06:00:00 9.6 5 Sur 28 Sur 0 -- -- 80
2021-01-22 05:00:00 9.2 14 Sudeste 28 Sudeste 0 -- -- 80
2021-01-22 04:00:00 10.7 19 Sudeste 31 Sudeste 0 -- -- 74
2021-01-22 03:00:00 10.4 17 Sur 27 Sur 0 -- -- 75
2021-01-22 02:00:00 10.8 21 Sur 30 Sur 0 -- -- 71
2021-01-22 01:00:00 8.1 20 Sudeste 30 Sur 0 -- -- 75
2021-01-22 00:00:00 8.6 16 Sur 22 Sur 0 -- -- 74
2021-01-21 23:00:00 8 14 Sur 19 Sur 0 -- -- 75
2021-01-21 22:00:00 8 12 Sudeste 15 Sudeste 0 -- -- 75
2021-01-21 21:00:00 9 5 Sur 18 Sudoeste 0 -- -- 70
2021-01-21 20:00:00 10.6 8 Sudoeste 15 Sudoeste 0 -- -- 67
2021-01-21 19:00:00 11.3 6 Oeste 22 Sudoeste 0 -- -- 62
2021-01-21 18:00:00 13 11 Oeste 32 Oeste 0 -- -- 57
2021-01-21 17:00:00 15.2 27 Oeste 52 Oeste 0 -- -- 50
2021-01-21 16:00:00 15.8 24 Oeste 58 Oeste 0 -- -- 50
2021-01-21 15:00:00 16.3 30 Oeste 51 Oeste 0 -- -- 50
2021-01-21 14:00:00 15.8 32 Oeste 49 Oeste 0 -- -- 53
2021-01-21 13:00:00 15 26 Oeste 46 Oeste 0 -- -- 59
2021-01-21 12:00:00 14.4 27 Oeste 39 Oeste 0 -- -- 62
2021-01-21 11:00:00 12.4 7 Oeste 15 Oeste 0 -- -- 71
2021-01-21 10:00:00 9.4 3 Norte 6 Este 0 -- -- 86
2021-01-21 09:00:00 6.9 4 Sudoeste 14 Sudoeste 0 -- -- 93
2021-01-21 08:00:00 5 4 Este 12 Oeste 0 -- -- 97
2021-01-21 07:00:00 3.6 4 Sur 10 Sur 0 -- -- 96
2021-01-21 06:00:00 4.2 0 Calma 9 Sudoeste 0 -- -- 96
2021-01-21 05:00:00 3.8 6 Sudoeste 12 Norte 0 -- -- 97
2021-01-21 04:00:00 2.9 5 Norte 13 Oeste 0 -- -- 98
2021-01-21 03:00:00 3.7 0 Calma 7 Norte 0 -- -- 96
2021-01-21 02:00:00 3.9 3 Nordeste 7 Nordeste 0 -- -- 95
2021-01-21 01:00:00 4.7 0 Calma 8 Sudoeste 0 -- -- 95
2021-01-21 00:00:00 4.4 4 Norte 9 Norte 0 -- -- 94
2021-01-20 23:00:00 4.5 8 Oeste 10 Oeste 0 -- -- 92
2021-01-20 22:00:00 5.9 8 Sur 10 Sur 0 -- -- 88
2021-01-20 21:00:00 5.7 4 Sur 13 Sudeste 0 -- -- 90
2021-01-20 20:00:00 5.9 12 Sudeste 18 Sudeste 0 -- -- 92
2021-01-20 19:00:00 5.8 15 Sudeste 19 Sudeste 0 -- -- 93
2021-01-20 18:00:00 6.8 9 Sur 17 Sudeste 0 -- -- 90
2021-01-20 17:00:00 7.2 10 Sudeste 17 Sudeste 0 -- -- 90
2021-01-20 16:00:00 6.9 6 Sur 14 Sudoeste 0.2 -- -- 96
2021-01-20 15:00:00 5.6 8 Sur 10 Sur 1.4 -- -- 98
2021-01-20 14:00:00 5.3 4 Norte 9 Noroeste 0 -- -- 98
2021-01-20 13:00:00 4.5 2 Oeste 10 Noroeste 0 -- -- 99
2021-01-20 12:00:00 3.9 7 Norte 12 Nordeste 0 -- -- 99
2021-01-20 11:00:00 3.1 6 Norte 12 Noroeste 0 -- -- 99
2021-01-20 10:00:00 2.1 7 Noroeste 12 Noroeste 0 -- -- 98
2021-01-20 09:00:00 1 5 Noroeste 7 Noroeste 0 -- -- 99
2021-01-20 08:00:00 -0.2 0 Calma -- -- 0 -- -- 98
2021-01-20 07:00:00 -0.9 0 Calma -- -- 0 -- -- 98
2021-01-20 06:00:00 -1.7 0 Calma -- -- 0 -- -- 98
2021-01-20 05:00:00 -2.2 0 Calma -- -- 0 -- -- 98
2021-01-20 04:00:00 -1.8 0 Calma -- -- 0 -- -- 97
2021-01-20 03:00:00 -1 0 Calma -- -- 0 -- -- 97
2021-01-20 02:00:00 -0.9 0 Calma -- -- 0 -- -- 97
2021-01-20 01:00:00 0.3 0 Calma -- -- 0 -- -- 97
2021-01-20 00:00:00 1.6 0 Calma 2 Sudoeste 0 -- -- 95
2021-01-19 23:00:00 2.9 0 Calma 6 Sudoeste 0 -- -- 96
2021-01-19 22:00:00 6 4 Sur 14 Sudeste 0 -- -- 95
2021-01-19 21:00:00 5.6 7 Sudeste 18 Sudeste 0 -- -- 92
2021-01-19 20:00:00 7 13 Sudeste 20 Sudeste 0 -- -- 87
2021-01-19 19:00:00 8.6 15 Sur 23 Sudeste 0 -- -- 77
2021-01-19 18:00:00 11 18 Sudeste 25 Sudeste 0 -- -- 68
2021-01-19 17:00:00 13.9 19 Sudeste 26 Sudeste 0 -- -- 55
2021-01-19 16:00:00 15.3 18 Sudeste 26 Sudeste 0 -- -- 52
2021-01-19 15:00:00 16.1 10 Sur 19 Sudeste 0 -- -- 49
2021-01-19 14:00:00 15.5 8 Sudeste 13 Sudeste 0 -- -- 51
2021-01-19 13:00:00 12.1 3 Este 8 Este 0 -- -- 66
2021-01-19 12:00:00 8 0 Calma 7 Norte 0 -- -- 81
2021-01-19 11:00:00 3.7 3 Noroeste 7 Noroeste 0 -- -- 97
2021-01-19 10:00:00 0 3 Noroeste 6 Noroeste 0 -- -- 98
2021-01-19 09:00:00 -2.9 0 Calma -- -- 0 -- -- 97
2021-01-19 08:00:00 -2.3 0 Calma 4 Oeste 0 -- -- 97
2021-01-19 07:00:00 -2.1 0 Calma 5 Oeste 0 -- -- 97
2021-01-19 06:00:00 -1.4 3 Oeste 5 Oeste 0 -- -- 97
2021-01-19 05:00:00 -1.1 0 Calma 3 Sudoeste 0 -- -- 96
2021-01-19 04:00:00 -1.2 0 Calma 3 Oeste 0 -- -- 96
2021-01-19 03:00:00 -1.2 2 Nordeste 5 Oeste 0 -- -- 95
2021-01-19 02:00:00 -0.8 0 Calma 3 Noroeste 0 -- -- 94
2021-01-19 01:00:00 -0.9 -- -- -- -- 0 -- -- 93
2021-01-19 00:00:00 0.3 2 Noroeste 4 Noroeste 0 -- -- 91
2021-01-18 23:00:00 2.6 0 Calma 12 Sudeste 0 -- -- 91
2021-01-18 22:00:00 4.3 10 Sudeste 13 Sudeste 0 -- -- 91
2021-01-18 21:00:00 5.1 11 Sudeste 13 Sudeste 0 -- -- 89
2021-01-18 20:00:00 6.5 9 Sudeste 15 Sudeste 0 -- -- 84
2021-01-18 19:00:00 8 13 Sudeste 15 Sudeste 0 -- -- 77
2021-01-18 18:00:00 11.1 13 Sudeste 22 Sudeste 0 -- -- 64
2021-01-18 17:00:00 13.6 16 Sudeste 24 Sudeste 0 -- -- 57
2021-01-18 16:00:00 16.3 9 Sur 15 Sudoeste 0 -- -- 47
2021-01-18 15:00:00 15.8 5 Nordeste 11 Este 0 -- -- 46
2021-01-18 14:00:00 14.4 4 Nordeste 14 Norte 0 -- -- 50
2021-01-18 13:00:00 12.6 2 Noroeste 8 Norte 0 -- -- 53
2021-01-18 12:00:00 9.6 3 Norte 9 Norte 0 -- -- 59
2021-01-18 11:00:00 5.9 6 Norte 11 Norte 0 -- -- 69
2021-01-18 10:00:00 2.1 3 Oeste 7 Oeste 0 -- -- 80
2021-01-18 09:00:00 -2.6 0 Calma 6 Noroeste 0 -- -- 88
2021-01-18 08:00:00 -2.6 4 Noroeste 13 Norte 0 -- -- 84
2021-01-18 07:00:00 -1.9 9 Noroeste 13 Norte 0 -- -- 83
2021-01-18 06:00:00 -2 9 Norte 15 Norte 0 -- -- 81
2021-01-18 05:00:00 -2.1 4 Noroeste 9 Norte 0 -- -- 79
2021-01-18 04:00:00 -1.4 3 Noroeste 15 Norte 0 -- -- 76
2021-01-18 03:00:00 0.3 5 Norte 16 Norte 0 -- -- 65
2021-01-18 02:00:00 0 11 Norte 14 Norte 0 -- -- 70
2021-01-18 01:00:00 0 10 Norte 15 Norte 0 -- -- 70
2021-01-18 00:00:00 3.7 11 Noroeste 19 Noroeste 0 -- -- 53
2021-01-17 23:00:00 2.4 8 Noroeste 18 Noroeste 0 -- -- 56
2021-01-17 22:00:00 6.1 8 Norte 18 Noroeste 0 -- -- 43
2021-01-17 21:00:00 7.6 12 Noroeste 24 Oeste 0 -- -- 36
2021-01-17 20:00:00 9.1 9 Noroeste 28 Oeste 0 -- -- 34
2021-01-17 19:00:00 10.8 19 Oeste 32 Oeste 0 -- -- 32
2021-01-17 18:00:00 12.8 16 Oeste 30 Oeste 0 -- -- 29
2021-01-17 17:00:00 15.5 23 Oeste 37 Oeste 0 -- -- 27
2021-01-17 16:00:00 17.9 20 Oeste 28 Oeste 0 -- -- 25
2021-01-17 15:00:00 18.2 10 Norte 26 Oeste 0 -- -- 27
2021-01-17 14:00:00 16.8 12 Noroeste 21 Oeste 0 -- -- 29
2021-01-17 13:00:00 13.5 9 Norte 17 Norte 0 -- -- 37
2021-01-17 12:00:00 10.4 12 Norte 19 Norte 0 -- -- 43
2021-01-17 11:00:00 6.3 12 Norte 15 Norte 0 -- -- 57
2021-01-17 10:00:00 1.4 12 Norte 15 Norte 0 -- -- 74
2021-01-17 09:00:00 -1.6 8 Noroeste 17 Norte 0 -- -- 83
2021-01-17 08:00:00 -2.5 10 Norte 15 Norte 0 -- -- 85
2021-01-17 07:00:00 -2.7 8 Norte 14 Norte 0 -- -- 86
2021-01-17 06:00:00 -3.2 6 Noroeste 15 Norte 0 -- -- 87
2021-01-17 05:00:00 -2.4 10 Norte 16 Norte 0 -- -- 85
2021-01-17 04:00:00 -2.4 11 Norte 18 Noroeste 0 -- -- 83
2021-01-17 03:00:00 -2 11 Norte 17 Norte 0 -- -- 84
2021-01-17 02:00:00 -1.3 9 Norte 17 Norte 0 -- -- 81
2021-01-17 01:00:00 -1.6 9 Norte 14 Norte 0 -- -- 82
2021-01-17 00:00:00 -0.6 9 Norte 13 Norte 0 -- -- 79
2021-01-16 23:00:00 -0.3 8 Norte 12 Norte 0 -- -- 76
2021-01-16 22:00:00 1.2 8 Norte 17 Noroeste 0 -- -- 68
2021-01-16 21:00:00 4.7 12 Noroeste 18 Noroeste 0 -- -- 54
2021-01-16 20:00:00 5.7 8 Noroeste 15 Noroeste 0 -- -- 53
2021-01-16 19:00:00 7 2 Noroeste 16 Oeste 0 -- -- 50
2021-01-16 18:00:00 10.8 8 Oeste 14 Oeste 0 -- -- 43
2021-01-16 17:00:00 13.9 7 Oeste 15 Oeste 0 -- -- 35
2021-01-16 16:00:00 14 8 Oeste 15 Noroeste 0 -- -- 31
2021-01-16 15:00:00 13.4 8 Oeste 17 Noroeste 0 -- -- 33
2021-01-16 14:00:00 11.6 6 Norte 14 Norte 0 -- -- 43
2021-01-16 13:00:00 9.4 6 Nordeste 12 Norte 0 -- -- 49
2021-01-16 12:00:00 7.3 7 Norte 14 Norte 0 -- -- 57
2021-01-16 11:00:00 4.4 10 Norte 14 Norte 0 -- -- 68
2021-01-16 10:00:00 0.3 8 Norte 14 Norte 0 -- -- 82
2021-01-16 09:00:00 -2.4 11 Norte 17 Norte 0 -- -- 88
2021-01-16 08:00:00 -3 12 Norte 16 Norte 0 -- -- 88
2021-01-16 07:00:00 -3.4 6 Norte 14 Noroeste 0 -- -- 87
2021-01-16 06:00:00 -2.3 8 Noroeste 13 Oeste 0 -- -- 85
2021-01-16 05:00:00 -1.6 6 Noroeste 15 Oeste 0 -- -- 80
2021-01-16 04:00:00 1.7 7 Noroeste 17 Oeste 0 -- -- 74
2021-01-16 03:00:00 -0.7 6 Noroeste 11 Oeste 0 -- -- 82
2021-01-16 02:00:00 0.7 2 Noroeste 22 Noroeste 0 -- -- 74
2021-01-16 01:00:00 2.8 18 Oeste 38 Oeste 0 -- -- 72
2021-01-16 00:00:00 3.6 23 Oeste 35 Oeste 0 -- -- 69
2021-01-15 23:00:00 3.7 14 Noroeste 30 Oeste 0 -- -- 70
2021-01-15 22:00:00 3.8 11 Noroeste 25 Oeste 0 -- -- 70
2021-01-15 21:00:00 4.1 10 Oeste 28 Oeste 0 -- -- 69
2021-01-15 20:00:00 5.1 19 Oeste 39 Oeste 0 -- -- 65
2021-01-15 19:00:00 6.4 16 Oeste 37 Oeste 0 -- -- 61
2021-01-15 18:00:00 8.4 24 Oeste 42 Oeste 0 -- -- 53
2021-01-15 17:00:00 11.3 27 Oeste 39 Oeste 0 -- -- 46
2021-01-15 16:00:00 13 22 Oeste 34 Oeste 0 -- -- 43
2021-01-15 15:00:00 13.2 23 Oeste 32 Oeste 0 -- -- 45
2021-01-15 14:00:00 12.5 17 Oeste 30 Oeste 0 -- -- 47
2021-01-15 13:00:00 11 7 Norte 15 Noroeste 0 -- -- 54
2021-01-15 12:00:00 8.3 7 Norte 14 Norte 0 -- -- 62
2021-01-15 11:00:00 5.6 9 Norte 18 Noroeste 0 -- -- 71
2021-01-15 10:00:00 1.5 6 Norte 14 Norte 0 -- -- 83
2021-01-15 09:00:00 -0.5 11 Norte 21 Noroeste 0 -- -- 87
2021-01-15 08:00:00 -0.9 12 Norte 19 Noroeste 0 -- -- 87
2021-01-15 07:00:00 0.7 12 Noroeste 20 Noroeste 0 -- -- 79
2021-01-15 06:00:00 0.4 12 Noroeste 19 Noroeste 0 -- -- 84
2021-01-15 05:00:00 -1.4 9 Noroeste 14 Noroeste 0 -- -- 86
2021-01-15 04:00:00 -2 9 Norte 12 Noroeste 0 -- -- 85
2021-01-15 03:00:00 -1.9 8 Norte 13 Norte 0 -- -- 82
2021-01-15 02:00:00 -0.1 8 Norte 15 Norte 0 -- -- 78
2021-01-15 01:00:00 -0.2 10 Norte 13 Norte 0 -- -- 77
2021-01-15 00:00:00 -0.3 7 Norte 19 Norte 0 -- -- 75
2021-01-14 23:00:00 -0.1 10 Norte 19 Noroeste 0 -- -- 76
2021-01-14 22:00:00 0.7 6 Norte 16 Noroeste 0 -- -- 71
2021-01-14 21:00:00 5 12 Noroeste 22 Oeste 0 -- -- 55
2021-01-14 20:00:00 5.9 15 Oeste 26 Oeste 0 -- -- 52
2021-01-14 19:00:00 6.7 14 Noroeste 20 Oeste 0 -- -- 48
2021-01-14 18:00:00 9.4 12 Noroeste 28 Oeste 0 -- -- 45
2021-01-14 17:00:00 9.9 18 Oeste 30 Oeste 0 -- -- 43
2021-01-14 16:00:00 10.1 15 Oeste 26 Oeste 0 -- -- 42
2021-01-14 15:00:00 10.5 11 Noroeste 24 Noroeste 0 -- -- 40
2021-01-14 14:00:00 13.2 15 Noroeste 27 Noroeste 0 -- -- 39
2021-01-14 13:00:00 10.7 7 Norte 13 Norte 0 -- -- 46
2021-01-14 12:00:00 8.7 7 Norte 15 Norte 0 -- -- 51
2021-01-14 11:00:00 5.8 8 Norte 16 Norte 0 -- -- 58
2021-01-14 10:00:00 1.1 8 Norte 17 Norte 0 -- -- 80
2021-01-14 09:00:00 -2.2 9 Norte 13 Norte 0 -- -- 87
2021-01-14 08:00:00 -3.1 10 Norte 17 Nordeste 0 -- -- 88
2021-01-14 07:00:00 -2.8 8 Norte 15 Norte 0 -- -- 89
2021-01-14 06:00:00 -2.7 9 Norte 14 Norte 0 -- -- 90
2021-01-14 05:00:00 -2.4 8 Norte 13 Norte 0 -- -- 89
2021-01-14 04:00:00 -2.4 8 Norte 12 Norte 0 -- -- 89
2021-01-14 03:00:00 -2 7 Norte 15 Noroeste 0 -- -- 88
2021-01-14 02:00:00 -2 8 Norte 14 Norte 0 -- -- 88
2021-01-14 01:00:00 -1.8 9 Norte 12 Norte 0 -- -- 88
2021-01-14 00:00:00 -1.3 8 Norte 11 Norte 0 -- -- 85
2021-01-13 23:00:00 -0.5 6 Norte 12 Norte 0 -- -- 79
2021-01-13 22:00:00 1.9 9 Norte 17 Oeste 0 -- -- 68
2021-01-13 21:00:00 3.9 11 Oeste 18 Oeste 0 -- -- 59
2021-01-13 20:00:00 4.8 8 Oeste 19 Oeste 0 -- -- 57
2021-01-13 19:00:00 6.3 8 Sudoeste 25 Oeste 0 -- -- 54
2021-01-13 18:00:00 8.1 17 Oeste 26 Oeste 0 -- -- 47
2021-01-13 17:00:00 11.6 12 Oeste 21 Noroeste 0 -- -- 41
2021-01-13 16:00:00 12.1 15 Oeste 25 Oeste 0 -- -- 39
2021-01-13 15:00:00 12.1 12 Noroeste 33 Norte 0 -- -- 37
2021-01-13 14:00:00 11.2 13 Oeste 23 Oeste 0 -- -- 41
2021-01-13 13:00:00 8.5 7 Norte 15 Norte 0 -- -- 49
2021-01-13 12:00:00 6.2 6 Norte 12 Norte 0 -- -- 56
2021-01-13 11:00:00 3.3 8 Norte 16 Norte 0 -- -- 65
2021-01-13 10:00:00 -0.3 8 Norte 14 Noroeste 0 -- -- 82
2021-01-13 09:00:00 -3.2 9 Norte 13 Noroeste 0 -- -- 86
2021-01-13 08:00:00 -4.1 9 Norte 15 Norte 0 -- -- 86
2021-01-13 07:00:00 -3.6 9 Norte 13 Noroeste 0 -- -- 84
2021-01-13 06:00:00 -2.8 8 Norte 17 Noroeste 0 -- -- 82
2021-01-13 05:00:00 -3.1 9 Norte 18 Norte 0 -- -- 82
2021-01-13 04:00:00 -2 10 Norte 19 Noroeste 0 -- -- 76
2021-01-13 03:00:00 -1.3 11 Norte 16 Norte 0 -- -- 77
2021-01-13 02:00:00 -2.7 8 Norte 15 Noroeste 0 -- -- 84
2021-01-13 01:00:00 -1.2 10 Norte 18 Noroeste 0 -- -- 77
2021-01-13 00:00:00 -0.1 8 Norte 17 Noroeste 0 -- -- 70
2021-01-12 23:00:00 0.7 9 Norte 17 Noroeste 0 -- -- 68
2021-01-12 22:00:00 1.7 10 Noroeste 28 Noroeste 0 -- -- 62
2021-01-12 21:00:00 2.1 13 Noroeste 32 Oeste 0 -- -- 60
2021-01-12 20:00:00 3.1 19 Noroeste 33 Oeste 0 -- -- 54
2021-01-12 19:00:00 3.7 22 Oeste 32 Oeste 0 -- -- 50
2021-01-12 18:00:00 5 19 Oeste 41 Oeste 0 -- -- 45
2021-01-12 17:00:00 6.5 29 Oeste 42 Oeste 0 -- -- 44
2021-01-12 16:00:00 7.6 27 Oeste 39 Oeste 0 -- -- 44
2021-01-12 15:00:00 8.7 19 Oeste 32 Oeste 0 -- -- 41
2021-01-12 14:00:00 8.1 17 Oeste 29 Oeste 0 -- -- 46
2021-01-12 13:00:00 6.6 19 Oeste 28 Oeste 0 -- -- 48
2021-01-12 12:00:00 4.3 8 Norte 18 Norte 0 -- -- 57
2021-01-12 11:00:00 2.1 9 Norte 16 Norte 0 -- -- 64
2021-01-12 10:00:00 -0.2 6 Norte 19 Noroeste 0 -- -- 75
2021-01-12 09:00:00 -3 7 Norte 14 Norte 0 -- -- 88
2021-01-12 08:00:00 -3.5 9 Norte 19 Noroeste 0 -- -- 88
2021-01-12 07:00:00 -4.2 7 Norte 15 Noroeste 0 -- -- 91
2021-01-12 06:00:00 -3.8 8 Norte 15 Noroeste 0 -- -- 91
2021-01-12 05:00:00 -2.3 8 Norte 15 Noroeste 0 -- -- 86
2021-01-12 04:00:00 -1.9 6 Norte 18 Noroeste 0 -- -- 85
2021-01-12 03:00:00 -0.6 10 Noroeste 23 Noroeste 0 -- -- 79
2021-01-12 02:00:00 -0.6 12 Noroeste 22 Oeste 0 -- -- 81
2021-01-12 01:00:00 -0.6 9 Noroeste 19 Oeste 0 -- -- 82
2021-01-12 00:00:00 -0.1 9 Noroeste 23 Oeste 0 -- -- 80
2021-01-11 23:00:00 0.4 8 Oeste 22 Oeste 0 -- -- 78
2021-01-11 22:00:00 1.4 11 Noroeste 22 Oeste 0 -- -- 75
2021-01-11 21:00:00 1.9 12 Noroeste 22 Oeste 0 -- -- 77
2021-01-11 20:00:00 2.8 10 Oeste 17 Oeste 0 -- -- 81
2021-01-11 19:00:00 4.2 6 Noroeste 10 Noroeste 0 -- -- 78
2021-01-11 18:00:00 5.8 7 Oeste 13 Norte 0 -- -- 72
2021-01-11 17:00:00 7.9 9 Norte 14 Noroeste 0 -- -- 64
2021-01-11 16:00:00 8 8 Noroeste 14 Noroeste 0 -- -- 63
2021-01-11 15:00:00 7.9 9 Noroeste 17 Oeste 0 -- -- 65
2021-01-11 14:00:00 8.7 8 Norte 14 Noroeste 0 -- -- 64
2021-01-11 13:00:00 7.7 5 Norte 12 Noroeste 0 -- -- 70
2021-01-11 12:00:00 6.2 5 Norte 10 Norte 0 -- -- 79
2021-01-11 11:00:00 4 6 Norte 9 Norte 0 -- -- 95
2021-01-11 10:00:00 1.6 5 Norte 8 Norte 0 -- -- 98
2021-01-11 09:00:00 -0.5 5 Norte 8 Norte 0 -- -- 98
2021-01-11 08:00:00 -0.6 5 Norte 7 Noroeste 0 -- -- 97
2021-01-11 07:00:00 -0.3 4 Norte 12 Noroeste 0 -- -- 97
2021-01-11 06:00:00 0.2 6 Noroeste 13 Noroeste 0 -- -- 97
2021-01-11 05:00:00 0.2 8 Noroeste 11 Noroeste 0 -- -- 96
2021-01-11 04:00:00 0.8 5 Norte 6 Noroeste 0 -- -- 94
2021-01-11 03:00:00 2.3 4 Norte 12 Norte 0 -- -- 93
2021-01-11 02:00:00 3.5 7 Norte 17 Norte 0 -- -- 92
2021-01-11 01:00:00 3.7 10 Norte 19 Norte 0 -- -- 92
2021-01-11 00:00:00 4 9 Norte 18 Norte 0 -- -- 92
2021-01-10 23:00:00 4 9 Norte 17 Norte 0 -- -- 92
2021-01-10 22:00:00 3.9 10 Norte 20 Norte 0 -- -- 92
2021-01-10 21:00:00 4.1 12 Norte 18 Norte 0 -- -- 94
2021-01-10 20:00:00 3.9 9 Norte 15 Nordeste 0.2 -- -- 95
2021-01-10 19:00:00 4 9 Norte 16 Norte 0.2 -- -- 94
2021-01-10 18:00:00 4.3 9 Nordeste 22 Nordeste 0.4 -- -- 93
2021-01-10 17:00:00 5.6 14 Norte 26 Norte 0 -- -- 88
2021-01-10 16:00:00 6.1 13 Norte 23 Nordeste 0 -- -- 87
2021-01-10 15:00:00 6.8 12 Norte 20 Norte 0 -- -- 87
2021-01-10 14:00:00 6.4 12 Norte 18 Nordeste 0 -- -- 88
2021-01-10 13:00:00 5.2 9 Noroeste 12 Oeste 0 -- -- 95
2021-01-10 12:00:00 4.5 6 Noroeste 10 Norte 0 -- -- 97
2021-01-10 11:00:00 3.1 5 Noroeste 11 Noroeste 0.2 -- -- 98
2021-01-10 10:00:00 1.9 6 Noroeste 10 Noroeste 0.2 -- -- 98
2021-01-10 09:00:00 1.8 5 Oeste 13 Oeste 0.6 -- -- 99
2021-01-10 08:00:00 1.3 5 Oeste 8 Oeste 0 -- -- 99
2021-01-10 07:00:00 1.1 0 Calma 8 Noroeste 0.8 -- -- 99
2021-01-10 06:00:00 0.3 2 Noroeste 8 Norte 0 -- -- 99
2021-01-10 05:00:00 -0.3 3 Norte 7 Norte 0 -- -- 99
2021-01-10 04:00:00 -0.6 0 Calma 11 Norte 0 -- -- 99
2021-01-10 03:00:00 -0.6 5 Noroeste 8 Norte 0 -- -- 98
2021-01-10 02:00:00 0.2 5 Noroeste 12 Noroeste 0 -- -- 98
2021-01-10 01:00:00 0.7 7 Norte 13 Noroeste 0 -- -- 98
2021-01-10 00:00:00 1.6 7 Noroeste 12 Oeste 0 -- -- 97
2021-01-09 23:00:00 0.8 4 Norte 13 Oeste 0 -- -- 96
2021-01-09 22:00:00 1.8 8 Noroeste 13 Noroeste 0 -- -- 96
2021-01-09 21:00:00 2.8 6 Norte 10 Norte 0 -- -- 95
2021-01-09 20:00:00 3.3 7 Noroeste 17 Noroeste 0.2 -- -- 94
2021-01-09 19:00:00 3.6 7 Norte 14 Noroeste 0 -- -- 93
2021-01-09 18:00:00 4.3 7 Noroeste 12 Noroeste 0.2 -- -- 92
2021-01-09 17:00:00 4.6 9 Noroeste 15 Oeste 0.2 -- -- 92
2021-01-09 16:00:00 4.8 9 Noroeste 14 Noroeste 0.2 -- -- 90
2021-01-09 15:00:00 4.9 4 Norte 8 Noroeste 0.2 -- -- 92
2021-01-09 14:00:00 4.2 6 Norte 14 Norte 0.6 -- -- 94
2021-01-09 13:00:00 4.2 8 Norte 16 Norte 0.8 -- -- 91
2021-01-09 12:00:00 4.6 13 Norte 23 Norte 1 -- -- 90
2021-01-09 11:00:00 3.1 14 Norte 24 Norte 1.4 -- -- 93
2021-01-09 10:00:00 2.5 12 Noroeste 30 Norte 1.4 -- -- 95
2021-01-09 09:00:00 1.4 20 Nordeste 34 Norte 1.6 -- -- 95
2021-01-09 08:00:00 1.2 22 Norte 41 Nordeste 0.8 -- -- 95
2021-01-09 07:00:00 1.5 22 Norte 38 Norte 0.2 -- -- 95
2021-01-09 06:00:00 1.7 21 Norte 43 Nordeste 0.2 -- -- 96
2021-01-09 05:00:00 2.2 32 Nordeste 44 Norte 0.4 -- -- 95
2021-01-09 04:00:00 3 24 Nordeste 40 Nordeste 0.2 -- -- 95
2021-01-09 03:00:00 3.6 16 Norte 28 Norte 0.2 -- -- 93
2021-01-09 02:00:00 3.6 11 Norte 27 Nordeste 0.2 -- -- 94
2021-01-09 01:00:00 3.3 19 Norte 32 Norte 0.2 -- -- 94
2021-01-09 00:00:00 3.5 20 Norte 33 Nordeste 0.4 -- -- 94
2021-01-08 23:00:00 4.1 13 Norte 25 Nordeste 0.2 -- -- 94
2021-01-08 22:00:00 3.9 12 Norte 27 Nordeste 0.2 -- -- 93
2021-01-08 21:00:00 3.6 13 Nordeste 27 Nordeste 0.2 -- -- 93
2021-01-08 20:00:00 3.5 19 Nordeste 37 Nordeste 0.4 -- -- 93
2021-01-08 19:00:00 3.9 13 Nordeste 21 Norte 0.2 -- -- 92
2021-01-08 18:00:00 3.9 10 Norte 17 Nordeste 0.4 -- -- 93
2021-01-08 17:00:00 3.9 11 Norte 24 Nordeste 0.2 -- -- 94
2021-01-08 16:00:00 3.7 14 Norte 26 Nordeste 0.4 -- -- 95
2021-01-08 15:00:00 3.7 18 Norte 27 Nordeste 0.2 -- -- 95
2021-01-08 14:00:00 3.5 12 Norte 19 Norte 0.2 -- -- 95
2021-01-08 13:00:00 3.2 12 Norte 20 Norte 0.4 -- -- 96
2021-01-08 12:00:00 2.8 14 Norte 23 Norte 0.2 -- -- 96
2021-01-08 11:00:00 2.6 15 Norte 24 Nordeste 0.4 -- -- 95
2021-01-08 10:00:00 2.2 17 Norte 25 Nordeste 0.4 -- -- 95
2021-01-08 09:00:00 1.6 17 Norte 25 Norte 0.4 -- -- 95
2021-01-08 08:00:00 1.4 17 Norte 30 Nordeste 0.4 -- -- 95
2021-01-08 07:00:00 1.2 15 Norte 26 Norte 0.2 -- -- 95
2021-01-08 06:00:00 0.9 11 Norte 22 Norte 0.4 -- -- 96
2021-01-08 05:00:00 0.9 13 Norte 26 Norte 0.4 -- -- 96
2021-01-08 04:00:00 0.6 12 Noroeste 23 Norte 0.2 -- -- 96
2021-01-08 03:00:00 0.5 13 Norte 23 Norte 0.2 -- -- 95
2021-01-08 02:00:00 0.6 14 Norte 26 Nordeste 0.2 -- -- 95
2021-01-08 01:00:00 1.2 18 Norte 32 Norte 0.2 -- -- 94
2021-01-08 00:00:00 1.7 17 Norte 29 Norte 0.4 -- -- 92
2021-01-07 23:00:00 1.9 18 Norte 31 Norte 0.2 -- -- 92
2021-01-07 22:00:00 2 15 Norte 29 Norte 0.2 -- -- 92
2021-01-07 21:00:00 1.9 17 Norte 31 Norte 0.4 -- -- 93
2021-01-07 20:00:00 2 18 Norte 30 Norte 0.2 -- -- 93
2021-01-07 19:00:00 1.9 13 Norte 26 Norte 0.4 -- -- 93
2021-01-07 18:00:00 2.1 14 Norte 25 Norte 0.4 -- -- 93
2021-01-07 17:00:00 2 11 Norte 21 Norte 0.4 -- -- 94
2021-01-07 16:00:00 2.5 15 Norte 28 Norte 0.4 -- -- 92
2021-01-07 15:00:00 3.1 20 Norte 31 Norte 0.4 -- -- 91
2021-01-07 14:00:00 4 22 Nordeste 31 Nordeste 0.2 -- -- 92
2021-01-07 13:00:00 4.4 13 Norte 23 Norte 0.2 -- -- 92
2021-01-07 12:00:00 4.1 13 Nordeste 25 Nordeste 0 -- -- 93
2021-01-07 11:00:00 3.7 14 Norte 26 Norte 0.2 -- -- 93
2021-01-07 10:00:00 2.9 12 Norte 19 Norte 0.2 -- -- 94
2021-01-07 09:00:00 2.7 9 Norte 16 Norte 0.2 -- -- 94
2021-01-07 08:00:00 2.3 5 Noroeste 15 Norte 0.2 -- -- 94
2021-01-07 07:00:00 2.1 9 Norte 18 Norte 0.2 -- -- 94
2021-01-07 06:00:00 2.1 10 Norte 20 Norte 0.2 -- -- 94
2021-01-07 05:00:00 1.9 9 Norte 17 Norte 0.2 -- -- 94
2021-01-07 04:00:00 2.1 9 Norte 17 Norte 0.2 -- -- 94
2021-01-07 03:00:00 2.4 5 Norte 12 Norte 0.2 -- -- 93
2021-01-07 02:00:00 2.6 5 Norte 9 Nordeste 0.4 -- -- 90
2021-01-07 01:00:00 3.6 8 Nordeste 18 Nordeste 0 -- -- 82
2021-01-07 00:00:00 3.1 2 Sudoeste 7 Noroeste 0 -- -- 73
2021-01-06 23:00:00 2.9 0 Calma 4 Oeste 0 -- -- 71
2021-01-06 22:00:00 3.3 3 Noroeste 5 Sudeste 0 -- -- 70
2021-01-06 21:00:00 4.4 5 Sudeste 11 Sur 0 -- -- 66
2021-01-06 20:00:00 4.5 7 Sudeste 12 Sudeste 0 -- -- 63
2021-01-06 19:00:00 4.8 10 Sudeste 14 Sudeste 0 -- -- 58
2021-01-06 18:00:00 6.7 5 Sudeste 15 Sur 0 -- -- 45
2021-01-06 17:00:00 8.1 8 Sur 15 Sudeste 0 -- -- 39
2021-01-06 16:00:00 9.2 8 Sudeste 15 Sudeste 0 -- -- 28
2021-01-06 15:00:00 9.8 6 Sur 16 Sudoeste 0 -- -- 30
2021-01-06 14:00:00 10.1 9 Sur 17 Sudoeste 0 -- -- 33
2021-01-06 13:00:00 8.5 3 Este 10 Este 0 -- -- 41
2021-01-06 12:00:00 5.4 4 Norte 12 Norte 0 -- -- 56
2021-01-06 11:00:00 1.7 8 Norte 13 Norte 0 -- -- 68
2021-01-06 10:00:00 -2.4 4 Noroeste 8 Noroeste 0 -- -- 80
2021-01-06 09:00:00 -6.5 5 Noroeste 9 Norte 0 -- -- 89
2021-01-06 08:00:00 -7.2 5 Norte 8 Oeste 0 -- -- 86
2021-01-06 07:00:00 -6 5 Oeste 9 Oeste 0 -- -- 87
2021-01-06 06:00:00 -6.8 3 Noroeste 6 Noroeste 0 -- -- 89
2021-01-06 05:00:00 -7.5 0 Calma 4 Sudoeste 0 -- -- 88
2021-01-06 04:00:00 -6.9 0 Calma 8 Noroeste 0 -- -- 87
2021-01-06 03:00:00 -7.5 2 Noroeste 4 Oeste 0 -- -- 86
2021-01-06 02:00:00 -6.7 3 Oeste 4 Noroeste 0 -- -- 84
2021-01-06 01:00:00 -6.2 3 Noroeste 5 Norte 0 -- -- 83
2021-01-06 00:00:00 -5.8 0 Calma 6 Noroeste 0 -- -- 81
2021-01-05 23:00:00 -5.5 3 Norte 5 Noroeste 0 -- -- 78
2021-01-05 22:00:00 -3.7 3 Noroeste 9 Norte 0 -- -- 69
2021-01-05 21:00:00 -2 2 Este 5 Oeste 0 -- -- 65
2021-01-05 20:00:00 0.9 5 Noroeste 9 Noroeste 0 -- -- 57
2021-01-05 19:00:00 1.8 2 Nordeste 12 Oeste 0 -- -- 55
2021-01-05 18:00:00 5.1 4 Oeste 11 Oeste 0 -- -- 45
2021-01-05 17:00:00 8.3 8 Oeste 14 Sudoeste 0 -- -- 38
2021-01-05 16:00:00 8.9 6 Norte 14 Norte 0 -- -- 39
2021-01-05 15:00:00 8.9 7 Noroeste 16 Norte 0 -- -- 39
2021-01-05 14:00:00 8.2 8 Norte 21 Oeste 0 -- -- 47
2021-01-05 13:00:00 7.1 11 Oeste 18 Oeste 0 -- -- 55
2021-01-05 12:00:00 5.3 9 Oeste 22 Oeste 0 -- -- 63
2021-01-05 11:00:00 2.8 2 Nordeste 8 Norte 0 -- -- 74
2021-01-05 10:00:00 0.4 4 Noroeste 14 Norte 0 -- -- 87
2021-01-05 09:00:00 -3.4 7 Norte 9 Norte 0 -- -- 92
2021-01-05 08:00:00 -2.8 4 Norte 11 Nordeste 0 -- -- 91
2021-01-05 07:00:00 -1.9 10 Nordeste 21 Norte 0 -- -- 89
2021-01-05 06:00:00 -4.1 8 Norte 14 Oeste 0 -- -- 91
2021-01-05 05:00:00 -2.6 5 Noroeste 11 Oeste 0 -- -- 90
2021-01-05 04:00:00 -3.9 3 Sudeste 9 Oeste 0 -- -- 86
2021-01-05 03:00:00 -1.4 4 Noroeste 19 Noroeste 0 -- -- 85
2021-01-05 02:00:00 -0.8 8 Noroeste 14 Norte 0 -- -- 88
2021-01-05 01:00:00 -1.6 6 Oeste 9 Sudoeste 0 -- -- 86
2021-01-05 00:00:00 -1.1 3 Norte 7 Norte 0 -- -- 86
2021-01-04 23:00:00 -0.4 6 Noroeste 10 Noroeste 0 -- -- 84
2021-01-04 22:00:00 0.4 4 Oeste 10 Norte 0 -- -- 80
2021-01-04 21:00:00 2.7 4 Nordeste 6 Nordeste 0 -- -- 71
2021-01-04 20:00:00 4.3 0 Calma 13 Noroeste 0 -- -- 66
2021-01-04 19:00:00 5.2 8 Noroeste 18 Noroeste 0 -- -- 65
2021-01-04 18:00:00 5.8 9 Noroeste 31 Oeste 0 -- -- 62
2021-01-04 17:00:00 6.7 16 Noroeste 32 Oeste 0 -- -- 55
2021-01-04 16:00:00 7.3 16 Oeste 30 Oeste 0 -- -- 51
2021-01-04 15:00:00 7.6 14 Noroeste 35 Oeste 0 -- -- 53
2021-01-04 14:00:00 9.1 21 Oeste 34 Oeste 0 -- -- 51
2021-01-04 13:00:00 8.1 20 Oeste 33 Oeste 0 -- -- 53
2021-01-04 12:00:00 8.1 18 Oeste 30 Oeste 0 -- -- 52
2021-01-04 11:00:00 5.9 2 Este 9 Norte 0 -- -- 62
2021-01-04 10:00:00 1.6 5 Norte 9 Norte 0 -- -- 82
2021-01-04 09:00:00 -3.2 5 Noroeste 11 Noroeste 0 -- -- 87
2021-01-04 08:00:00 -4.5 9 Norte 12 Norte 0 -- -- 87
2021-01-04 07:00:00 -4.2 9 Norte 10 Noroeste 0 -- -- 91
2021-01-04 06:00:00 -7 0 Calma 3 Sudeste 0 -- -- 88
2021-01-04 05:00:00 -6.4 2 Norte 4 Norte 0 -- -- 88
2021-01-04 04:00:00 -6 0 Calma 5 Sudoeste 0 -- -- 87
2021-01-04 03:00:00 -5.7 0 Calma 3 Nordeste 0 -- -- 85
2021-01-04 02:00:00 -6 2 Sudoeste 5 Sudoeste 0 -- -- 84
2021-01-04 01:00:00 -5.5 0 Calma 6 Norte 0 -- -- 80
2021-01-04 00:00:00 -4.1 4 Norte 7 Sudoeste 0 -- -- 80
2021-01-03 23:00:00 -2.7 0 Calma 7 Oeste 0 -- -- 77
2021-01-03 22:00:00 -1.9 3 Norte 9 Sudeste 0 -- -- 73
2021-01-03 21:00:00 0 0 Calma 13 Noroeste 0 -- -- 67
2021-01-03 20:00:00 3.6 10 Noroeste 24 Noroeste 0 -- -- 57
2021-01-03 19:00:00 4.4 17 Noroeste 23 Noroeste 0 -- -- 57
2021-01-03 18:00:00 5.9 16 Noroeste 32 Noroeste 0 -- -- 49
2021-01-03 17:00:00 7.8 24 Noroeste 40 Noroeste 0 -- -- 45
2021-01-03 16:00:00 8.3 28 Noroeste 51 Noroeste 0 -- -- 42
2021-01-03 15:00:00 8.5 29 Noroeste 46 Oeste 0 -- -- 43
2021-01-03 14:00:00 8.5 28 Noroeste 46 Noroeste 0 -- -- 43
2021-01-03 13:00:00 7.8 29 Noroeste 45 Noroeste 0 -- -- 44
2021-01-03 12:00:00 6.8 22 Noroeste 38 Oeste 0 -- -- 47
2021-01-03 11:00:00 5.5 23 Noroeste 40 Noroeste 0 -- -- 51
2021-01-03 10:00:00 3.9 24 Noroeste 44 Noroeste 0 -- -- 55
2021-01-03 09:00:00 2.2 17 Noroeste 32 Oeste 0 -- -- 61
2021-01-03 08:00:00 0 13 Oeste 27 Oeste 0 -- -- 66
2021-01-03 07:00:00 0.2 16 Noroeste 28 Noroeste 0 -- -- 63
2021-01-03 06:00:00 0.3 17 Noroeste 28 Oeste 0 -- -- 62
2021-01-03 05:00:00 0.6 17 Oeste 30 Oeste 0 -- -- 63
2021-01-03 04:00:00 0.9 16 Noroeste 27 Noroeste 0 -- -- 63
2021-01-03 03:00:00 1.5 7 Noroeste 26 Noroeste 0 -- -- 59
2021-01-03 02:00:00 1.7 6 Noroeste 34 Noroeste 0 -- -- 59
2021-01-03 01:00:00 2.9 22 Noroeste 40 Noroeste 0 -- -- 57
2021-01-03 00:00:00 3 24 Noroeste 41 Noroeste 0 -- -- 58
2021-01-02 23:00:00 3.1 23 Noroeste 48 Noroeste 0 -- -- 58
2021-01-02 22:00:00 3.6 30 Noroeste 51 Noroeste 0 -- -- 59
2021-01-02 21:00:00 3.7 27 Noroeste 46 Noroeste 0 -- -- 55
2021-01-02 20:00:00 4 26 Noroeste 41 Oeste 0 -- -- 58
2021-01-02 19:00:00 4.3 26 Noroeste 43 Noroeste 0 -- -- 60
2021-01-02 18:00:00 5 28 Noroeste 48 Noroeste 0 -- -- 55
2021-01-02 17:00:00 5.5 28 Noroeste 50 Noroeste 0 -- -- 51
2021-01-02 16:00:00 5.9 29 Noroeste 49 Oeste 0 -- -- 50
2021-01-02 15:00:00 5.9 28 Noroeste 48 Noroeste 0 -- -- 49
2021-01-02 14:00:00 5.6 27 Noroeste 48 Noroeste 0 -- -- 52